GMTT/TNG METAR and TAF weather

Enter ICAO airport designator
Station Type Date Time Source
GMTT METAR 2020/01/18 21:30 UTC NOAA

GMTT 182130Z 21007KT 170V240 3000 RA SCT005 BKN010 16/16 Q1027 TEMPO 3000 RA


Station Type Date Time Source
GMTT Decoded METAR 2020/01/18 21:30 UTC NOAA

Tanger Aerodrome , Morocco (GMTT) 35-44N 005-54W 21M
Jan 18, 2020 - 04:30 PM EST / 2020.01.18 2130 UTC
Wind: from the SSW (210 degrees) at 8 MPH (7 KT) (direction variable):0
Visibility: 1 mile(s):0
Sky conditions: mostly cloudy
Weather: rain
Temperature: 60 F (16 C)
Dew Point: 60 F (16 C)
Relative Humidity: 100%
Pressure (altimeter): 30.33 in. Hg (1027 hPa)
ob: GMTT 182130Z 21007KT 170V240 3000 RA SCT005 BKN010 16/16 Q1027 TEMPO 3000 RA
cycle: 21

Station Type Date Time Source
GMTT TAF 2020/01/18 18:18 UTC NOAA

TAF GMTT 181700Z 1818/1924 22004KT 9999 BKN050
TEMPO 1822/1907 30017KT 2000 SHRA BKN010 SCT020TCU
BECMG 1907/1911 32016KT

Example: see airport list